Time;durP1;ratioP1;P1;durP2;ratioP2;P2;SDS_P1;SDS_P2;PMS_P1;PMS_P2;Temp;Humidity;BMP_temperature;BMP_pressure;BME280_temperature;BME280_humidity;BME280_pressure;Samples;Min_cycle;Max_cycle;Signal;HPM_P1;HPM_P2
2023/10/17 00:01:34;;;;;;;9.93;4.20;;;;;;;5.27;100.00;97971.56;5070150;28;20024;-72
2023/10/17 00:04:24;;;;;;;8.73;4.75;;;;;;;5.18;100.00;97964.78;5053037;28;20033;-72
2023/10/17 00:06:58;;;;;;;8.93;4.75;;;;;;;5.06;100.00;97959.03;5069054;28;20024;-73
2023/10/17 00:09:24;;;;;;;7.28;4.45;;;;;;;5.08;100.00;97957.19;5069629;28;20452;-72
2023/10/17 00:14:20;;;;;;;12.90;3.53;;;;;;;4.98;100.00;97966.38;5068892;28;20052;-73
2023/10/17 00:16:46;;;;;;;7.35;3.83;;;;;;;4.94;100.00;97952.34;5068914;28;20095;-72
2023/10/17 00:19:15;;;;;;;9.50;4.10;;;;;;;4.88;100.00;97958.72;5070042;28;20469;-72
2023/10/17 00:21:41;;;;;;;6.10;3.78;;;;;;;4.92;100.00;97952.38;5068760;28;20044;-72
2023/10/17 00:24:10;;;;;;;7.75;3.67;;;;;;;4.86;100.00;97947.28;5068960;28;20081;-72
2023/10/17 00:26:39;;;;;;;6.00;3.83;;;;;;;4.76;100.00;97945.00;5068779;28;20025;-72
2023/10/17 00:29:07;;;;;;;9.88;4.30;;;;;;;4.85;100.00;97950.00;5069917;28;20496;-73
2023/10/17 00:31:35;;;;;;;10.85;3.53;;;;;;;4.86;100.00;97944.66;5052001;28;20404;-72
2023/10/17 00:34:01;;;;;;;6.95;3.83;;;;;;;4.82;100.00;97945.69;5070120;28;20029;-72
2023/10/17 00:36:27;;;;;;;9.88;3.85;;;;;;;4.87;100.00;97943.72;5069696;28;20039;-73
2023/10/17 00:39:16;;;;;;;11.40;5.47;;;;;;;4.87;100.00;97937.56;5068655;28;20407;-73
2023/10/17 00:42:09;;;;;;;15.60;6.35;;;;;;;4.81;100.00;97938.63;5069017;28;20035;-73
2023/10/17 00:44:39;;;;;;;8.10;4.45;;;;;;;4.84;100.00;97937.66;5068892;28;20423;-73
2023/10/17 00:47:18;;;;;;;11.13;4.55;;;;;;;4.76;100.00;97940.59;5068936;28;20028;-73
2023/10/17 00:49:44;;;;;;;6.63;3.40;;;;;;;4.79;100.00;97937.84;5068259;28;20029;-73
2023/10/17 00:52:24;;;;;;;10.55;4.25;;;;;;;4.74;100.00;97936.22;5068545;28;20057;-73
2023/10/17 00:54:53;;;;;;;10.02;4.65;;;;;;;4.75;100.00;97944.13;5068389;28;20433;-73
2023/10/17 00:57:20;;;;;;;9.82;4.78;;;;;;;4.67;100.00;97938.25;5068751;28;20468;-72
2023/10/17 00:59:52;;;;;;;17.60;6.07;;;;;;;4.68;100.00;97926.69;5068352;28;20107;-73
2023/10/17 01:02:29;;;;;;;11.88;6.07;;;;;;;4.68;100.00;97934.66;5068685;28;20033;-72
2023/10/17 01:04:58;;;;;;;6.93;4.25;;;;;;;4.68;100.00;97936.41;5068472;28;20395;-72
2023/10/17 01:07:29;;;;;;;8.40;4.57;;;;;;;4.62;100.00;97932.19;5068491;28;20119;-72
2023/10/17 01:09:55;;;;;;;7.82;4.13;;;;;;;4.57;100.00;97934.13;5068147;28;20081;-72
2023/10/17 01:12:26;;;;;;;10.55;4.45;;;;;;;4.55;100.00;97930.69;5053339;28;20024;-72
2023/10/17 01:14:52;;;;;;;8.50;3.90;;;;;;;4.54;100.00;97928.06;5072216;28;20075;-73
2023/10/17 01:17:23;;;;;;;6.45;4.20;;;;;;;4.52;100.00;97929.91;5088944;28;20480;-73
2023/10/17 01:19:53;;;;;;;8.80;4.32;;;;;;;4.51;100.00;97931.69;5073121;28;20051;-73
2023/10/17 01:22:21;;;;;;;10.40;4.40;;;;;;;4.46;100.00;97930.09;5088750;28;20032;-73
2023/10/17 01:24:47;;;;;;;8.00;3.92;;;;;;;4.33;100.00;97929.63;5072832;28;20020;-73
2023/10/17 01:27:13;;;;;;;7.30;4.38;;;;;;;4.26;100.00;97934.22;5071838;28;20028;-72
2023/10/17 01:29:41;;;;;;;8.18;4.00;;;;;;;4.19;100.00;97931.81;5072766;28;20064;-73
2023/10/17 01:32:09;;;;;;;9.18;4.60;;;;;;;4.26;100.00;97930.72;5072915;28;20034;-72
2023/10/17 01:34:36;;;;;;;13.15;5.00;;;;;;;4.23;100.00;97936.97;5071790;28;20434;-72
2023/10/17 01:37:03;;;;;;;23.02;5.70;;;;;;;4.13;100.00;97938.16;5072833;28;20054;-73
2023/10/17 01:39:29;;;;;;;10.15;4.93;;;;;;;4.20;100.00;97933.56;5071534;28;20095;-73
2023/10/17 01:41:55;;;;;;;13.30;5.00;;;;;;;4.15;100.00;97920.44;5071753;28;20107;-73
2023/10/17 01:44:21;;;;;;;10.13;4.90;;;;;;;4.17;100.00;97931.88;5072602;28;20111;-72
2023/10/17 01:46:46;;;;;;;10.13;5.03;;;;;;;4.20;100.00;97938.84;5071151;28;20082;-72
2023/10/17 01:49:13;;;;;;;12.75;5.60;;;;;;;4.14;100.00;97929.31;5071268;28;20462;-72
2023/10/17 01:51:48;;;;;;;12.45;5.47;;;;;;;4.11;100.00;97933.84;5072565;28;20031;-72
2023/10/17 01:54:16;;;;;;;11.98;6.10;;;;;;;4.00;100.00;97930.66;5087100;28;20027;-72
2023/10/17 01:56:47;;;;;;;13.10;5.43;;;;;;;4.03;100.00;97930.56;5072386;28;20120;-73
2023/10/17 01:59:13;;;;;;;10.23;5.35;;;;;;;3.97;100.00;97925.44;5071700;28;20035;-73
2023/10/17 02:01:42;;;;;;;14.25;5.47;;;;;;;4.07;100.00;97926.88;5054812;28;20029;-73
2023/10/17 02:04:18;;;;;;;11.55;5.28;;;;;;;4.10;100.00;97929.44;5071538;28;20467;-73
2023/10/17 02:06:44;;;;;;;12.10;5.40;;;;;;;4.07;100.00;97930.41;5071135;28;20031;-72
2023/10/17 02:12:05;;;;;;;8.35;4.35;;;;;;;3.97;100.00;97933.38;5066642;28;20102;-73
2023/10/17 02:14:31;;;;;;;10.27;4.82;;;;;;;3.93;100.00;97937.03;5071015;28;20039;-72
2023/10/17 02:16:59;;;;;;;9.43;4.93;;;;;;;3.91;100.00;97930.94;5070692;28;20448;-72
2023/10/17 02:19:31;;;;;;;13.18;4.85;;;;;;;3.95;100.00;97919.31;5070737;28;20045;-73
2023/10/17 02:21:58;;;;;;;9.93;4.30;;;;;;;3.96;100.00;97926.34;5070688;28;20024;-72
2023/10/17 02:24:25;;;;;;;12.18;4.85;;;;;;;4.00;100.00;97920.06;5086262;28;20036;-73
2023/10/17 02:26:59;;;;;;;11.27;5.65;;;;;;;4.04;100.00;97917.25;5071828;28;20101;-72
2023/10/17 02:29:26;;;;;;;15.30;5.47;;;;;;;4.05;100.00;97918.13;5071917;28;20491;-73
2023/10/17 02:31:58;;;;;;;17.58;5.45;;;;;;;3.96;100.00;97929.00;5070609;28;20037;-73
2023/10/17 02:34:29;;;;;;;9.15;4.65;;;;;;;3.95;100.00;97916.66;5071955;28;20484;-73
2023/10/17 02:36:55;;;;;;;10.38;5.40;;;;;;;3.82;100.00;97918.81;5070639;28;20481;-73
2023/10/17 02:39:21;;;;;;;11.55;4.57;;;;;;;3.82;100.00;97917.03;5070615;28;20108;-73
2023/10/17 02:41:47;;;;;;;17.45;7.45;;;;;;;3.74;100.00;97913.75;5071443;28;20094;-72
2023/10/17 02:44:19;;;;;;;27.75;11.20;;;;;;;3.68;100.00;97913.94;5070489;28;20103;-73
2023/10/17 02:46:45;;;;;;;16.83;6.53;;;;;;;3.65;100.00;97919.31;5070522;28;20056;-73
2023/10/17 02:49:13;;;;;;;24.67;5.60;;;;;;;3.60;100.00;97918.56;5069884;28;20037;-73
2023/10/17 02:51:42;;;;;;;12.38;5.38;;;;;;;3.66;100.00;97918.38;5071582;28;20024;-73
2023/10/17 02:54:12;;;;;;;11.77;4.95;;;;;;;3.63;100.00;97925.56;5070181;28;20492;-72
2023/10/17 02:56:38;;;;;;;12.32;5.35;;;;;;;3.62;100.00;97913.25;5086572;28;20033;-73
2023/10/17 02:59:06;;;;;;;8.98;4.97;;;;;;;3.78;100.00;97919.84;5071191;28;20025;-72
2023/10/17 03:01:36;;;;;;;12.18;5.07;;;;;;;3.69;100.00;97910.34;5070086;28;20039;-72
2023/10/17 03:04:09;;;;;;;17.90;4.93;;;;;;;3.82;100.00;97906.44;5086701;28;20032;-73
2023/10/17 03:06:40;;;;;;;16.23;6.43;;;;;;;3.82;100.00;97902.94;5070622;28;20048;-72
2023/10/17 03:09:16;;;;;;;21.48;7.57;;;;;;;3.95;100.00;97908.72;5069561;28;20431;-72
2023/10/17 03:17:02;;;;;;;11.05;5.43;;;;;;;3.69;100.00;97915.66;5069610;28;20028;-73
2023/10/17 03:19:28;;;;;;;11.25;5.88;;;;;;;3.61;100.00;97901.78;5086415;28;20572;-73
2023/10/17 03:21:55;;;;;;;13.52;6.03;;;;;;;3.64;100.00;97917.56;5070975;28;20025;-73
2023/10/17 03:24:39;;;;;;;11.20;5.45;;;;;;;3.62;100.00;97919.41;5069238;28;20086;-73
2023/10/17 03:27:07;;;;;;;25.55;7.30;;;;;;;3.51;100.00;97917.94;5069278;28;20507;-73
2023/10/17 03:29:34;;;;;;;17.42;6.68;;;;;;;3.47;100.00;97919.84;5069760;28;20020;-73
2023/10/17 03:32:23;;;;;;;13.32;6.70;;;;;;;3.43;100.00;97910.25;5069680;28;20028;-74
2023/10/17 03:34:56;;;;;;;13.02;5.72;;;;;;;3.37;100.00;97921.00;5063892;28;20035;-72
2023/10/17 03:39:52;;;;;;;11.43;6.28;;;;;;;3.41;100.00;97922.66;5069430;28;20017;-73
2023/10/17 03:45:18;;;;;;;17.10;5.65;;;;;;;3.44;100.00;97896.13;5084147;28;20024;-73
2023/10/17 03:47:47;;;;;;;11.18;5.93;;;;;;;3.35;100.00;97888.47;5069503;28;20032;-72
2023/10/17 03:50:31;;;;;;;10.57;5.78;;;;;;;3.37;100.00;97891.91;5069057;28;20456;-73
2023/10/17 03:55:52;;;;;;;11.57;6.18;;;;;;;3.43;100.00;97902.31;5053054;28;20071;-72
2023/10/17 04:00:51;;;;;;;17.70;6.45;;;;;;;3.51;100.00;97899.44;5070440;28;20028;-73
2023/10/17 04:03:23;;;;;;;13.68;7.30;;;;;;;3.52;100.00;97902.06;5069945;28;20025;-73
2023/10/17 04:06:40;;;;;;;10.88;5.30;;;;;;;3.56;100.00;97893.13;5070638;28;20021;-73
2023/10/17 04:08:48;;;;;;;19.98;6.28;;;;;;;3.48;100.00;97889.81;5061942;28;20044;-72
2023/10/17 04:13:57;;;;;;;11.25;6.15;;;;;;;3.45;100.00;97889.03;5070555;28;20028;-75
2023/10/17 04:16:33;;;;;;;17.05;6.32;;;;;;;3.54;100.00;97900.22;5068611;28;20056;-73
2023/10/17 04:19:00;;;;;;;19.35;7.70;;;;;;;3.55;100.00;97903.75;5070868;28;20044;-77
2023/10/17 04:21:32;;;;;;;15.15;7.25;;;;;;;3.45;100.00;97903.13;5050969;28;20131;-73
2023/10/17 04:23:59;;;;;;;31.58;7.03;;;;;;;3.48;100.00;97897.75;5066735;28;20021;-73
2023/10/17 04:26:29;;;;;;;18.55;7.20;;;;;;;3.51;100.00;97902.97;5065367;28;20032;-70
2023/10/17 04:28:56;;;;;;;31.05;9.25;;;;;;;3.39;100.00;97900.66;5051621;28;20033;-72
2023/10/17 04:31:25;;;;;;;27.13;8.35;;;;;;;3.41;100.00;97898.84;5068131;28;20036;-73
2023/10/17 04:34:06;;;;;;;19.25;6.53;;;;;;;3.40;100.00;97886.53;5069035;28;20032;-73
2023/10/17 04:36:37;;;;;;;14.25;5.65;;;;;;;3.33;100.00;97879.69;5069598;28;20032;-73
2023/10/17 04:39:34;;;;;;;15.43;6.67;;;;;;;3.39;100.00;97898.00;5068899;28;20101;-72
2023/10/17 04:44:32;;;;;;;14.63;6.07;;;;;;;3.47;100.00;97888.13;5068497;28;20032;-71
2023/10/17 04:49:30;;;;;;;12.75;5.75;;;;;;;3.43;100.00;97885.59;5072920;28;20048;-72
2023/10/17 04:55:17;;;;;;;11.13;6.03;;;;;;;3.64;100.00;97900.84;5051563;28;20048;-73
2023/10/17 04:58:30;;;;;;;17.25;6.25;;;;;;;3.75;100.00;97904.06;5068749;28;20036;-74
2023/10/17 05:00:43;;;;;;;21.55;8.02;;;;;;;3.80;100.00;97908.28;5071546;28;20032;-72
2023/10/17 05:03:26;;;;;;;20.80;8.50;;;;;;;3.90;100.00;97908.00;5089590;28;20400;-73
2023/10/17 06:17:28;;;;;;;33.88;11.45;;;;;;;8.01;100.00;97923.31;5070871;28;20181;-73
2023/10/17 06:19:54;;;;;;;25.33;9.70;;;;;;;8.09;100.00;97913.19;5070726;28;20130;-73
2023/10/17 06:26:04;;;;;;;26.02;8.65;;;;;;;8.38;100.00;97919.84;5071001;28;20024;-74
2023/10/17 06:30:27;;;;;;;26.08;10.60;;;;;;;8.28;100.00;97910.53;5071494;28;20400;-73
2023/10/17 06:35:52;;;;;;;28.33;8.85;;;;;;;8.65;100.00;97911.38;5048394;28;20087;-72
2023/10/17 06:38:19;;;;;;;26.42;7.70;;;;;;;8.76;100.00;97894.00;5069775;28;20138;-73
2023/10/17 06:40:45;;;;;;;20.00;8.43;;;;;;;9.01;100.00;97897.19;5070394;28;20028;-73
2023/10/17 06:43:15;;;;;;;24.63;9.35;;;;;;;9.29;100.00;97902.00;5070141;28;20642;-74
2023/10/17 06:46:12;;;;;;;15.07;7.88;;;;;;;9.22;100.00;97886.28;5087116;28;20020;-72
2023/10/17 06:48:48;;;;;;;22.25;7.65;;;;;;;9.38;100.00;97890.84;5055970;28;20036;-72
2023/10/17 06:53:47;;;;;;;20.13;8.07;;;;;;;9.81;100.00;97885.81;5070380;28;20035;-73
2023/10/17 06:56:19;;;;;;;29.42;8.00;;;;;;;10.14;100.00;97883.19;5069927;28;20086;-73
2023/10/17 06:58:45;;;;;;;;;;;;;;;10.26;100.00;97881.63;5070423;28;20059;-74
2023/10/17 07:01:19;;;;;;;39.55;9.95;;;;;;;10.47;100.00;97887.59;5067544;28;19959;-73
2023/10/17 07:03:46;;;;;;;25.00;10.00;;;;;;;10.24;100.00;97883.53;5086180;28;20036;-73
2023/10/17 07:06:16;;;;;;;31.10;12.80;;;;;;;10.31;100.00;97885.78;5053098;28;20024;-73
2023/10/17 07:08:42;;;;;;;25.15;10.73;;;;;;;9.94;100.00;97885.16;5053467;28;20020;-73
2023/10/17 07:11:26;;;;;;;36.00;10.95;;;;;;;9.98;100.00;97882.25;5069423;28;20040;-74
2023/10/17 07:24:43;;;;;;;32.83;11.02;;;;;;;10.65;100.00;97867.81;5069469;28;20024;-73
2023/10/17 07:27:12;;;;;;;16.85;8.00;;;;;;;10.84;95.85;97863.16;5069701;28;20029;-73
2023/10/17 07:29:38;;;;;;;25.50;8.05;;;;;;;11.00;92.08;97847.94;5069430;28;20029;-72
2023/10/17 07:32:15;;;;;;;17.92;8.05;;;;;;;11.22;91.00;97848.38;5069358;28;20028;-73
2023/10/17 07:34:43;;;;;;;15.52;9.00;;;;;;;11.22;89.87;97840.34;5069103;28;20411;-72
2023/10/17 07:37:22;;;;;;;22.20;9.02;;;;;;;11.30;88.54;97845.22;5070462;28;20035;-73
2023/10/17 07:42:40;;;;;;;13.98;6.82;;;;;;;11.62;83.44;97835.25;5070276;28;20111;-73
2023/10/17 07:45:13;;;;;;;;;;;;;;;11.74;81.22;97822.00;5069475;28;20054;-72
2023/10/17 07:47:43;;;;;;;17.73;7.68;;;;;;;11.86;80.20;97812.31;5070301;28;19912;-73
2023/10/17 07:50:13;;;;;;;20.88;8.50;;;;;;;12.32;78.09;97815.59;5070359;28;20499;-72
2023/10/17 07:52:50;;;;;;;21.25;8.48;;;;;;;12.94;75.43;97815.03;5085269;28;20484;-72
2023/10/17 07:55:21;;;;;;;17.55;6.93;;;;;;;13.24;70.06;97812.09;5068904;28;20024;-73
2023/10/17 07:57:53;;;;;;;20.48;9.95;;;;;;;13.45;69.76;97812.44;5070289;28;20392;-73
2023/10/17 08:00:26;;;;;;;27.52;12.07;;;;;;;13.25;68.79;97810.28;5070402;28;20020;-71
2023/10/17 08:03:00;;;;;;;31.15;7.57;;;;;;;13.34;66.08;97807.84;5068793;28;20040;-73
2023/10/17 08:05:34;;;;;;;23.63;7.88;;;;;;;13.46;66.80;97804.28;5069341;28;20047;-72
2023/10/17 08:08:13;;;;;;;19.00;6.97;;;;;;;13.57;63.87;97798.16;5070129;28;20025;-72
2023/10/17 08:10:39;;;;;;;16.15;7.70;;;;;;;12.98;66.04;97802.25;5070171;28;20028;-73
2023/10/17 08:13:08;;;;;;;18.52;7.18;;;;;;;12.63;68.36;97795.69;5069017;28;20024;-73
2023/10/17 08:15:51;;;;;;;15.05;6.25;;;;;;;12.62;69.72;97804.69;5069181;28;20024;-73
2023/10/17 08:18:17;;;;;;;;;;;;;;;12.76;70.21;97796.59;5069303;28;20036;-72
2023/10/17 08:23:29;;;;;;;23.38;7.43;;;;;;;12.75;69.36;97789.50;5087514;28;20016;-72
2023/10/17 08:26:03;;;;;;;10.20;5.43;;;;;;;12.99;69.53;97801.28;5074019;28;20020;-72
2023/10/17 08:33:50;;;;;;;14.00;5.70;;;;;;;13.30;66.65;97792.00;5073008;28;20036;-72
2023/10/17 08:36:16;;;;;;;14.18;5.35;;;;;;;13.53;64.56;97794.81;5072710;28;20450;-72
2023/10/17 08:38:42;;;;;;;11.23;4.55;;;;;;;13.67;64.65;97793.00;5089319;28;20032;-72
2023/10/17 08:41:07;;;;;;;12.73;4.90;;;;;;;13.78;64.18;97777.00;5073861;28;20033;-72
2023/10/17 08:43:36;;;;;;;62.22;35.05;;;;;;;13.85;62.63;97778.25;5072638;28;20043;-72
2023/10/17 08:46:09;;;;;;;11.85;5.72;;;;;;;13.76;63.30;97782.47;5055683;28;20377;-73
2023/10/17 08:48:36;;;;;;;10.18;4.07;;;;;;;14.08;62.19;97772.09;5072859;28;20032;-73
2023/10/17 08:51:06;;;;;;;21.83;10.05;;;;;;;14.02;62.81;97777.91;5072416;28;20028;-73
2023/10/17 08:53:33;;;;;;;9.82;4.95;;;;;;;14.23;60.79;97776.34;5072395;28;20087;-73
2023/10/17 08:55:59;;;;;;;8.15;4.25;;;;;;;14.52;60.01;97776.91;5088912;28;20043;-73
2023/10/17 08:58:32;;;;;;;15.90;5.45;;;;;;;14.61;58.29;97760.94;5073564;28;20036;-74
2023/10/17 09:01:10;;;;;;;17.92;5.07;;;;;;;14.31;58.36;97770.41;5088550;28;20499;-74
2023/10/17 09:03:41;;;;;;;15.05;5.47;;;;;;;14.11;60.07;97771.88;5073813;28;20032;-73
2023/10/17 09:11:31;;;;;;;7.22;4.45;;;;;;;15.55;55.98;97751.00;5072193;28;20031;-73
2023/10/17 09:16:50;;;;;;;12.65;4.82;;;;;;;15.67;54.02;97746.47;5072130;28;20499;-74
2023/10/17 09:19:16;;;;;;;13.60;5.45;;;;;;;15.95;53.90;97750.53;5071606;28;20051;-73
2023/10/17 09:21:47;;;;;;;14.70;4.78;;;;;;;16.28;52.87;97743.25;5073189;28;20449;-73
2023/10/17 09:24:46;;;;;;;14.75;5.13;;;;;;;16.58;51.42;97731.78;5072028;28;20021;-74
2023/10/17 09:27:14;;;;;;;14.45;5.32;;;;;;;16.55;51.06;97723.13;5063884;28;20041;-73
2023/10/17 09:29:46;;;;;;;18.08;4.35;;;;;;;16.35;50.96;97735.53;5071796;28;20134;-73
2023/10/17 09:32:12;;;;;;;11.23;4.78;;;;;;;16.95;50.17;97710.66;5070947;28;20451;-73
2023/10/17 09:34:40;;;;;;;10.65;4.65;;;;;;;17.09;49.27;97704.09;5071349;28;20040;-73
2023/10/17 09:37:12;;;;;;;11.13;5.05;;;;;;;17.11;49.63;97712.91;5071785;28;20024;-74
2023/10/17 09:39:44;;;;;;;12.83;4.67;;;;;;;16.92;49.64;97715.50;5072444;28;20536;-74
2023/10/17 09:42:09;;;;;;;10.05;4.30;;;;;;;16.51;50.41;97706.28;5072655;28;20271;-73
2023/10/17 09:44:35;;;;;;;9.32;4.93;;;;;;;16.73;50.04;97695.41;5071339;28;20033;-72
2023/10/17 09:47:02;;;;;;;15.48;5.38;;;;;;;16.89;50.03;97705.75;5072484;28;20471;-73
2023/10/17 09:49:37;;;;;;;10.15;5.38;;;;;;;17.29;49.18;97703.22;5054400;28;20097;-72
2023/10/17 09:52:09;;;;;;;16.00;4.93;;;;;;;16.88;49.32;97692.41;5071079;28;20557;-73
2023/10/17 09:54:35;;;;;;;;;;;;;;;17.07;49.01;97698.78;5072146;28;20031;-72
2023/10/17 09:57:02;;;;;;;12.32;4.20;;;;;;;16.86;48.74;97700.63;5071089;28;19916;-72
2023/10/17 09:59:35;;;;;;;8.18;4.18;;;;;;;16.52;48.78;97691.78;5071255;28;20511;-72
2023/10/17 10:02:02;;;;;;;11.15;4.20;;;;;;;16.88;49.32;97697.81;5070959;28;20429;-72
2023/10/17 10:04:28;;;;;;;9.40;3.78;;;;;;;16.96;47.90;97674.53;5072259;28;20059;-73
2023/10/17 10:07:20;;;;;;;10.55;4.80;;;;;;;16.87;48.29;97674.47;5072369;28;20128;-73
2023/10/17 10:09:46;;;;;;;17.63;4.90;;;;;;;17.63;47.14;97680.38;5070802;28;20036;-72
2023/10/17 10:12:12;;;;;;;14.82;4.10;;;;;;;17.63;46.62;97674.09;5087612;28;20028;-73
2023/10/17 10:14:42;;;;;;;12.45;4.72;;;;;;;17.55;46.93;97665.81;5072329;28;20085;-75
2023/10/17 10:17:09;;;;;;;18.25;4.53;;;;;;;17.95;46.20;97652.31;5070642;28;20480;-74
2023/10/17 10:19:40;;;;;;;12.10;4.53;;;;;;;18.64;45.46;97662.13;5087202;28;20116;-74
2023/10/17 10:22:07;;;;;;;13.87;4.07;;;;;;;19.03;44.79;97664.84;5087335;28;20024;-74
2023/10/17 10:24:35;;;;;;;16.00;5.13;;;;;;;19.18;43.59;97658.84;5087565;28;20301;-73
2023/10/17 10:27:10;;;;;;;9.85;3.60;;;;;;;19.35;42.77;97644.50;5072028;28;20039;-74
2023/10/17 10:29:35;;;;;;;9.43;3.38;;;;;;;19.23;43.16;97650.25;5071730;28;20031;-73
2023/10/17 10:32:07;;;;;;;15.27;4.10;;;;;;;19.76;42.02;97635.09;5087375;28;20396;-73
2023/10/17 10:34:35;;;;;;;17.50;5.07;;;;;;;20.47;41.12;97635.28;5086680;28;20031;-73
2023/10/17 10:37:03;;;;;;;13.05;3.33;;;;;;;21.15;40.17;97631.00;5071773;28;20039;-72
2023/10/17 10:39:30;;;;;;;11.25;4.30;;;;;;;22.05;38.17;97620.50;5086954;28;20032;-72
2023/10/17 10:42:00;;;;;;;6.15;3.20;;;;;;;21.93;38.29;97620.97;5070264;28;20028;-74
2023/10/17 10:44:26;;;;;;;10.00;3.65;;;;;;;22.05;38.06;97617.78;5069003;28;20090;-73
2023/10/17 10:46:53;;;;;;;17.02;3.88;;;;;;;22.38;37.80;97620.59;5070382;28;20043;-74
2023/10/17 10:49:28;;;;;;;10.65;3.83;;;;;;;22.46;37.35;97609.69;5086848;28;20029;-74
2023/10/17 10:51:57;;;;;;;8.50;3.17;;;;;;;21.66;37.85;97618.41;5070227;28;20032;-73
2023/10/17 10:54:27;;;;;;;9.85;3.65;;;;;;;21.45;38.25;97608.75;5071180;28;20038;-74
2023/10/17 10:56:53;;;;;;;11.43;3.65;;;;;;;21.24;39.62;97615.59;5086775;28;20111;-73
2023/10/17 10:59:22;;;;;;;19.05;4.13;;;;;;;21.51;38.77;97609.97;5069826;28;20056;-72
2023/10/17 11:01:48;;;;;;;14.98;4.35;;;;;;;21.03;39.71;97615.91;5069743;28;20480;-72
2023/10/17 11:04:14;;;;;;;12.57;5.80;;;;;;;21.34;39.00;97608.19;5069752;28;20024;-72
2023/10/17 11:06:41;;;;;;;10.98;3.85;;;;;;;20.42;39.72;97614.03;5069871;28;20067;-72
2023/10/17 11:09:09;;;;;;;8.13;3.22;;;;;;;19.81;41.41;97605.63;5069617;28;20415;-72
2023/10/17 11:11:45;;;;;;;9.07;3.38;;;;;;;20.40;40.80;97612.44;5069878;28;20024;-73
2023/10/17 11:14:17;;;;;;;3.45;2.22;;;;;;;20.62;39.69;97606.56;5069877;28;20024;-74
2023/10/17 11:16:43;;;;;;;4.45;2.40;;;;;;;20.03;40.65;97591.66;5069978;28;20028;-74
2023/10/17 11:19:22;;;;;;;2.63;2.20;;;;;;;19.79;41.25;97591.38;5070696;28;20064;-72
2023/10/17 11:21:57;;;;;;;6.82;3.05;;;;;;;20.10;41.26;97577.47;5069678;28;20043;-75
2023/10/17 11:24:25;;;;;;;10.25;3.45;;;;;;;20.39;41.00;97581.72;5069503;28;20024;-75
2023/10/17 11:26:51;;;;;;;7.60;2.40;;;;;;;20.35;40.95;97588.47;5069550;28;20051;-74
2023/10/17 11:29:18;;;;;;;12.48;2.90;;;;;;;20.19;41.23;97573.81;5069097;28;20033;-75
2023/10/17 11:31:44;;;;;;;26.08;9.75;;;;;;;20.16;41.35;97571.41;5069608;28;20107;-73
2023/10/17 11:34:16;;;;;;;5.90;2.78;;;;;;;20.08;41.09;97564.06;5069333;28;20107;-73
2023/10/17 11:36:54;;;;;;;7.15;2.53;;;;;;;19.45;42.04;97569.41;5086103;28;20033;-73
2023/10/17 11:39:20;;;;;;;20.83;6.72;;;;;;;19.65;42.03;97574.75;5085613;28;20035;-74
2023/10/17 11:41:47;;;;;;;6.20;2.90;;;;;;;19.76;42.10;97572.66;5069562;28;20029;-74
2023/10/17 11:44:15;;;;;;;4.18;2.75;;;;;;;20.14;41.84;97563.44;5066686;28;20476;-73
2023/10/17 11:46:49;;;;;;;7.28;3.00;;;;;;;20.03;41.70;97566.34;5069300;28;20060;-74
2023/10/17 11:49:21;;;;;;;4.07;2.60;;;;;;;19.96;41.53;97554.41;5085819;28;20063;-73
2023/10/17 11:52:10;;;;;;;6.85;2.30;;;;;;;20.17;41.03;97537.81;5070432;28;20031;-73
2023/10/17 11:55:00;;;;;;;6.18;2.50;;;;;;;20.28;40.95;97532.19;5069024;28;20103;-73
2023/10/17 11:57:27;;;;;;;4.53;2.05;;;;;;;19.90;41.31;97534.13;5068950;28;20016;-72
2023/10/17 11:59:57;;;;;;;8.25;2.30;;;;;;;20.21;41.15;97528.38;5069039;28;20395;-72
2023/10/17 12:02:24;;;;;;;12.23;2.80;;;;;;;20.23;41.16;97534.47;5085567;28;20032;-72
2023/10/17 12:04:49;;;;;;;9.45;2.65;;;;;;;20.31;41.23;97531.88;5070094;28;20020;-72
2023/10/17 12:07:15;;;;;;;4.45;2.35;;;;;;;20.49;40.59;97532.69;5070203;28;20028;-74
2023/10/17 12:09:41;;;;;;;4.55;2.10;;;;;;;20.17;41.15;97529.66;5068955;28;20391;-73
2023/10/17 12:12:06;;;;;;;3.95;2.75;;;;;;;19.77;42.12;97533.66;5068708;28;20103;-72
2023/10/17 12:14:33;;;;;;;6.07;3.30;;;;;;;19.57;42.66;97528.47;5069972;28;20032;-73
2023/10/17 12:17:00;;;;;;;4.78;2.13;;;;;;;19.35;41.97;97530.56;5068968;28;20082;-73
2023/10/17 12:19:27;;;;;;;5.68;2.35;;;;;;;19.09;42.81;97532.25;5069844;28;20040;-72
2023/10/17 12:22:00;;;;;;;5.47;2.15;;;;;;;18.88;43.43;97532.47;5085430;28;20099;-72
2023/10/17 12:24:31;;;;;;;4.80;2.03;;;;;;;18.93;43.68;97532.00;5085249;28;20120;-72
2023/10/17 12:27:00;;;;;;;3.92;2.15;;;;;;;18.89;43.59;97530.59;5052807;28;20070;-72
2023/10/17 12:29:26;;;;;;;4.60;2.10;;;;;;;19.02;43.09;97530.25;5068497;28;20118;-72
2023/10/17 12:31:59;;;;;;;9.73;2.38;;;;;;;18.88;43.72;97529.75;5064378;28;20123;-72
2023/10/17 12:34:27;;;;;;;5.43;3.03;;;;;;;18.56;44.58;97529.25;5068937;28;20089;-72
2023/10/17 12:36:53;;;;;;;7.07;3.70;;;;;;;18.26;45.25;97532.94;5068487;28;20051;-72
2023/10/17 12:39:19;;;;;;;5.55;3.10;;;;;;;18.24;45.53;97534.09;5068353;28;20123;-72
2023/10/17 12:41:49;;;;;;;17.52;8.35;;;;;;;18.05;45.95;97534.94;5069519;28;20158;-73
2023/10/17 12:44:18;;;;;;;7.78;4.25;;;;;;;17.73;46.89;97539.72;5068260;28;20489;-72
2023/10/17 12:46:44;;;;;;;17.30;4.70;;;;;;;17.72;47.25;97538.84;5068651;28;20028;-76
2023/10/17 12:49:10;;;;;;;8.63;2.92;;;;;;;17.71;47.04;97548.00;5068136;28;20111;-75
2023/10/17 12:51:37;;;;;;;8.50;3.25;;;;;;;17.59;47.37;97545.53;5069593;28;20078;-72
2023/10/17 12:54:03;;;;;;;13.70;4.28;;;;;;;17.54;48.22;97551.31;5068264;28;20035;-72
2023/10/17 12:56:29;;;;;;;8.45;4.30;;;;;;;17.57;48.32;97551.06;5069519;28;20539;-73
2023/10/17 12:58:54;;;;;;;14.07;3.75;;;;;;;17.47;48.38;97543.91;5069650;28;20047;-73
2023/10/17 13:01:25;;;;;;;5.07;3.22;;;;;;;17.43;48.09;97553.28;5069573;28;20039;-73
2023/10/17 13:03:53;;;;;;;6.88;3.47;;;;;;;17.39;48.00;97550.00;5070047;28;20067;-72
2023/10/17 13:06:21;;;;;;;9.25;2.80;;;;;;;17.27;47.73;97553.78;5068238;28;20127;-72
2023/10/17 13:08:48;;;;;;;7.25;2.80;;;;;;;16.97;48.35;97561.91;5087290;28;20042;-74
2023/10/17 13:11:14;;;;;;;19.73;9.25;;;;;;;16.86;48.64;97548.47;5063578;28;20095;-72
2023/10/17 13:13:40;;;;;;;15.38;7.38;;;;;;;16.96;49.02;97562.88;5069256;28;20470;-72
2023/10/17 13:16:05;;;;;;;6.78;2.85;;;;;;;16.93;48.57;97558.59;5070158;28;20500;-73
2023/10/17 13:18:33;;;;;;;7.07;2.70;;;;;;;16.85;48.83;97568.38;5070454;28;20792;-71
2023/10/17 13:21:06;;;;;;;15.93;3.92;;;;;;;16.68;49.93;97567.13;5070013;28;20028;-73
2023/10/17 13:23:32;;;;;;;7.80;3.08;;;;;;;16.59;50.13;97568.78;5068931;28;20058;-73
2023/10/17 13:25:58;;;;;;;11.93;4.63;;;;;;;16.54;50.40;97575.53;5068908;28;20071;-72
2023/10/17 13:28:24;;;;;;;8.18;4.95;;;;;;;16.35;50.69;97581.63;5068690;28;20107;-73
2023/10/17 13:30:50;;;;;;;13.18;5.45;;;;;;;16.30;50.98;97577.63;5070339;28;20475;-72
2023/10/17 13:33:20;;;;;;;11.18;5.07;;;;;;;16.10;51.30;97577.44;5069599;28;20028;-72
2023/10/17 13:35:46;;;;;;;10.05;4.68;;;;;;;15.92;51.71;97570.88;5085588;28;20540;-72
2023/10/17 13:38:16;;;;;;;11.07;6.68;;;;;;;15.89;51.81;97565.75;5068644;28;20103;-72
2023/10/17 13:40:42;;;;;;;13.90;5.95;;;;;;;15.81;52.47;97576.28;5070074;28;20070;-72
2023/10/17 13:43:10;;;;;;;16.58;7.65;;;;;;;15.79;53.41;97567.47;5069978;28;20032;-72
2023/10/17 13:45:41;;;;;;;18.92;6.47;;;;;;;15.69;53.38;97570.06;5068683;28;20028;-75
2023/10/17 13:48:06;;;;;;;13.70;6.00;;;;;;;15.63;53.57;97567.00;5068831;28;20483;-72
2023/10/17 13:50:32;;;;;;;16.50;5.72;;;;;;;15.61;53.99;97569.84;5066927;28;20035;-72
2023/10/17 13:53:06;;;;;;;12.07;5.38;;;;;;;15.60;54.10;97568.13;5068733;28;20032;-72
2023/10/17 13:55:38;;;;;;;11.45;5.90;;;;;;;15.53;54.48;97566.94;5069466;28;20495;-72
2023/10/17 13:58:04;;;;;;;15.25;6.95;;;;;;;15.57;55.02;97570.22;5069627;28;20553;-72
2023/10/17 14:00:54;;;;;;;16.33;7.30;;;;;;;15.43;54.69;97565.94;5068359;28;20033;-72
2023/10/17 14:03:17;;;;;;;10.73;5.43;;;;;;;15.36;55.54;97578.19;5069452;28;20071;-75
2023/10/17 14:05:49;;;;;;;11.32;5.78;;;;;;;15.41;56.26;97584.06;5068498;28;20043;-73
2023/10/17 14:08:16;;;;;;;8.63;4.97;;;;;;;15.37;56.41;97582.59;5068536;28;20020;-75